sensor_id;sensor_type;location;lat;lon;timestamp;pressure;altitude;pressure_sealevel;temperature;humidity
8581;BME280;4328;48.622;9.230;2024-03-22T00:00:15;98723.34;;;7.28;97.84
8581;BME280;4328;48.622;9.230;2024-03-22T00:02:42;98721.09;;;7.23;97.45
8581;BME280;4328;48.622;9.230;2024-03-22T00:05:07;98722.25;;;7.20;97.60
8581;BME280;4328;48.622;9.230;2024-03-22T00:07:34;98711.78;;;7.17;98.17
8581;BME280;4328;48.622;9.230;2024-03-22T00:09:59;98713.94;;;7.14;98.33
8581;BME280;4328;48.622;9.230;2024-03-22T00:12:27;98705.13;;;7.12;98.60
8581;BME280;4328;48.622;9.230;2024-03-22T00:14:53;98708.31;;;7.07;99.24
8581;BME280;4328;48.622;9.230;2024-03-22T00:17:20;98698.25;;;7.00;99.02
8581;BME280;4328;48.622;9.230;2024-03-22T00:19:46;98700.72;;;6.93;98.65
8581;BME280;4328;48.622;9.230;2024-03-22T00:22:12;98696.31;;;6.92;99.66
8581;BME280;4328;48.622;9.230;2024-03-22T00:24:38;98698.31;;;6.90;99.57
8581;BME280;4328;48.622;9.230;2024-03-22T00:27:05;98692.06;;;6.89;99.27
8581;BME280;4328;48.622;9.230;2024-03-22T00:29:32;98698.59;;;6.87;99.53
8581;BME280;4328;48.622;9.230;2024-03-22T00:31:58;98701.91;;;6.81;99.95
8581;BME280;4328;48.622;9.230;2024-03-22T00:34:24;98701.66;;;6.74;100.00
8581;BME280;4328;48.622;9.230;2024-03-22T00:36:51;98700.41;;;6.69;100.00
8581;BME280;4328;48.622;9.230;2024-03-22T00:39:17;98705.38;;;6.64;100.00
8581;BME280;4328;48.622;9.230;2024-03-22T00:41:43;98704.44;;;6.55;99.89
8581;BME280;4328;48.622;9.230;2024-03-22T00:44:09;98699.38;;;6.42;100.00
8581;BME280;4328;48.622;9.230;2024-03-22T00:46:37;98695.69;;;6.43;100.00
8581;BME280;4328;48.622;9.230;2024-03-22T00:49:02;98692.91;;;6.35;100.00
8581;BME280;4328;48.622;9.230;2024-03-22T00:51:29;98687.78;;;6.32;100.00
8581;BME280;4328;48.622;9.230;2024-03-22T00:53:54;98694.03;;;6.33;100.00
8581;BME280;4328;48.622;9.230;2024-03-22T00:56:21;98692.19;;;6.33;100.00
8581;BME280;4328;48.622;9.230;2024-03-22T00:58:47;98684.53;;;6.29;100.00
8581;BME280;4328;48.622;9.230;2024-03-22T01:01:14;98678.31;;;6.28;100.00
8581;BME280;4328;48.622;9.230;2024-03-22T01:03:41;98682.00;;;6.27;100.00
8581;BME280;4328;48.622;9.230;2024-03-22T01:06:07;98680.47;;;6.25;100.00
8581;BME280;4328;48.622;9.230;2024-03-22T01:08:33;98674.38;;;6.23;100.00
8581;BME280;4328;48.622;9.230;2024-03-22T01:11:00;98668.84;;;6.14;100.00
8581;BME280;4328;48.622;9.230;2024-03-22T01:13:26;98671.44;;;6.06;100.00
8581;BME280;4328;48.622;9.230;2024-03-22T01:15:52;98663.78;;;6.02;100.00
8581;BME280;4328;48.622;9.230;2024-03-22T01:18:18;98667.63;;;5.99;100.00
8581;BME280;4328;48.622;9.230;2024-03-22T01:20:46;98657.72;;;6.00;100.00
8581;BME280;4328;48.622;9.230;2024-03-22T01:23:12;98653.19;;;5.91;100.00
8581;BME280;4328;48.622;9.230;2024-03-22T01:25:38;98655.31;;;5.87;100.00
8581;BME280;4328;48.622;9.230;2024-03-22T01:28:04;98652.75;;;5.86;100.00
8581;BME280;4328;48.622;9.230;2024-03-22T01:30:31;98649.34;;;5.84;100.00
8581;BME280;4328;48.622;9.230;2024-03-22T01:32:58;98647.25;;;5.77;100.00
8581;BME280;4328;48.622;9.230;2024-03-22T01:35:25;98645.56;;;5.76;100.00
8581;BME280;4328;48.622;9.230;2024-03-22T01:37:52;98645.69;;;5.75;100.00
8581;BME280;4328;48.622;9.230;2024-03-22T01:40:18;98639.47;;;5.74;100.00
8581;BME280;4328;48.622;9.230;2024-03-22T01:42:44;98636.06;;;5.72;100.00
8581;BME280;4328;48.622;9.230;2024-03-22T01:45:11;98636.19;;;5.71;100.00
8581;BME280;4328;48.622;9.230;2024-03-22T01:47:39;98632.81;;;5.69;100.00
8581;BME280;4328;48.622;9.230;2024-03-22T01:50:07;98628.41;;;5.68;100.00
8581;BME280;4328;48.622;9.230;2024-03-22T01:52:33;98631.41;;;5.65;100.00
8581;BME280;4328;48.622;9.230;2024-03-22T01:55:01;98632.41;;;5.64;100.00
8581;BME280;4328;48.622;9.230;2024-03-22T01:57:27;98635.66;;;5.58;100.00
8581;BME280;4328;48.622;9.230;2024-03-22T01:59:55;98622.19;;;5.58;100.00
8581;BME280;4328;48.622;9.230;2024-03-22T02:02:22;98625.03;;;5.56;100.00
8581;BME280;4328;48.622;9.230;2024-03-22T02:04:50;98625.03;;;5.56;100.00
8581;BME280;4328;48.622;9.230;2024-03-22T02:07:16;98616.56;;;5.51;100.00
8581;BME280;4328;48.622;9.230;2024-03-22T02:09:42;98615.84;;;5.49;100.00
8581;BME280;4328;48.622;9.230;2024-03-22T02:12:10;98616.13;;;5.46;100.00
8581;BME280;4328;48.622;9.230;2024-03-22T02:14:37;98609.63;;;5.39;100.00
8581;BME280;4328;48.622;9.230;2024-03-22T02:17:02;98611.75;;;5.35;100.00
8581;BME280;4328;48.622;9.230;2024-03-22T02:19:29;98610.63;;;5.28;100.00
8581;BME280;4328;48.622;9.230;2024-03-22T02:21:54;98597.63;;;5.24;100.00
8581;BME280;4328;48.622;9.230;2024-03-22T02:24:22;98606.38;;;5.26;100.00
8581;BME280;4328;48.622;9.230;2024-03-22T02:26:48;98603.56;;;5.27;100.00
8581;BME280;4328;48.622;9.230;2024-03-22T02:29:14;98603.44;;;5.29;100.00
8581;BME280;4328;48.622;9.230;2024-03-22T02:31:40;98603.28;;;5.30;100.00
8581;BME280;4328;48.622;9.230;2024-03-22T02:34:06;98597.06;;;5.30;100.00
8581;BME280;4328;48.622;9.230;2024-03-22T02:36:32;98593.66;;;5.28;100.00
8581;BME280;4328;48.622;9.230;2024-03-22T02:38:58;98594.78;;;5.25;100.00
8581;BME280;4328;48.622;9.230;2024-03-22T02:41:25;98599.88;;;5.28;100.00
8581;BME280;4328;48.622;9.230;2024-03-22T02:43:52;98595.19;;;5.21;100.00
8581;BME280;4328;48.622;9.230;2024-03-22T02:46:17;98593.66;;;5.18;100.00
8581;BME280;4328;48.622;9.230;2024-03-22T02:48:44;98590.41;;;5.15;100.00
8581;BME280;4328;48.622;9.230;2024-03-22T02:51:10;98586.56;;;5.07;100.00
8581;BME280;4328;48.622;9.230;2024-03-22T02:53:36;98578.09;;;5.02;100.00
8581;BME280;4328;48.622;9.230;2024-03-22T02:56:02;98587.59;;;5.06;100.00
8581;BME280;4328;48.622;9.230;2024-03-22T02:58:30;98587.59;;;5.06;100.00
8581;BME280;4328;48.622;9.230;2024-03-22T03:00:55;98585.19;;;5.03;100.00
8581;BME280;4328;48.622;9.230;2024-03-22T03:03:22;98584.59;;;5.00;100.00
8581;BME280;4328;48.622;9.230;2024-03-22T03:05:48;98581.50;;;5.04;100.00
8581;BME280;4328;48.622;9.230;2024-03-22T03:08:14;98585.72;;;4.97;100.00
8581;BME280;4328;48.622;9.230;2024-03-22T03:10:40;98585.19;;;4.94;100.00
8581;BME280;4328;48.622;9.230;2024-03-22T03:13:06;98579.22;;;4.90;100.00
8581;BME280;4328;48.622;9.230;2024-03-22T03:15:33;98574.69;;;4.91;100.00
8581;BME280;4328;48.622;9.230;2024-03-22T03:18:00;98512.31;;;4.49;100.00
8581;BME280;4328;48.622;9.230;2024-03-22T03:20:25;98565.09;;;4.88;100.00
8581;BME280;4328;48.622;9.230;2024-03-22T03:22:52;98561.69;;;4.86;100.00
8581;BME280;4328;48.622;9.230;2024-03-22T03:25:17;98573.84;;;4.90;100.00
8581;BME280;4328;48.622;9.230;2024-03-22T03:27:44;98565.34;;;4.85;100.00
8581;BME280;4328;48.622;9.230;2024-03-22T03:30:10;98567.50;;;4.91;100.00
8581;BME280;4328;48.622;9.230;2024-03-22T03:32:41;98570.03;;;4.93;100.00
8581;BME280;4328;48.622;9.230;2024-03-22T03:35:08;98559.00;;;4.96;100.00
8581;BME280;4328;48.622;9.230;2024-03-22T03:37:35;98571.31;;;4.98;100.00
8581;BME280;4328;48.622;9.230;2024-03-22T03:40:00;98560.69;;;4.97;100.00
8581;BME280;4328;48.622;9.230;2024-03-22T03:42:27;98560.56;;;4.98;100.00
8581;BME280;4328;48.622;9.230;2024-03-22T03:44:54;98555.88;;;5.00;100.00
8581;BME280;4328;48.622;9.230;2024-03-22T03:47:21;98555.75;;;5.02;100.00
8581;BME280;4328;48.622;9.230;2024-03-22T03:49:50;98551.22;;;5.02;100.00
8581;BME280;4328;48.622;9.230;2024-03-22T03:52:17;98553.34;;;4.99;100.00
8581;BME280;4328;48.622;9.230;2024-03-22T03:54:43;98552.50;;;4.98;100.00
8581;BME280;4328;48.622;9.230;2024-03-22T03:57:10;98551.25;;;4.93;100.00
8581;BME280;4328;48.622;9.230;2024-03-22T03:59:36;98549.22;;;4.85;100.00
8581;BME280;4328;48.622;9.230;2024-03-22T04:02:04;98546.41;;;4.77;100.00
8581;BME280;4328;48.622;9.230;2024-03-22T04:04:29;98544.13;;;4.72;100.00
8581;BME280;4328;48.622;9.230;2024-03-22T04:06:57;98549.50;;;4.72;100.00
8581;BME280;4328;48.622;9.230;2024-03-22T04:09:23;98554.34;;;4.69;100.00
8581;BME280;4328;48.622;9.230;2024-03-22T04:11:50;98544.84;;;4.65;100.00
8581;BME280;4328;48.622;9.230;2024-03-22T04:14:16;98549.81;;;4.60;100.00
8581;BME280;4328;48.622;9.230;2024-03-22T04:16:43;98546.41;;;4.58;100.00
8581;BME280;4328;48.622;9.230;2024-03-22T04:19:09;98555.72;;;4.54;100.00
8581;BME280;4328;48.622;9.230;2024-03-22T04:21:36;98552.31;;;4.52;100.00
8581;BME280;4328;48.622;9.230;2024-03-22T04:24:04;98551.59;;;4.50;100.00
8581;BME280;4328;48.622;9.230;2024-03-22T04:26:31;98553.03;;;4.44;100.00
8581;BME280;4328;48.622;9.230;2024-03-22T04:28:56;98563.31;;;4.39;100.00
8581;BME280;4328;48.622;9.230;2024-03-22T04:31:23;98550.84;;;4.28;100.00
8581;BME280;4328;48.622;9.230;2024-03-22T04:33:49;98548.88;;;4.30;100.00
8581;BME280;4328;48.622;9.230;2024-03-22T04:36:15;98552.56;;;4.29;100.00
8581;BME280;4328;48.622;9.230;2024-03-22T04:38:41;98554.25;;;4.30;100.00
8581;BME280;4328;48.622;9.230;2024-03-22T04:41:09;98561.06;;;4.34;100.00
8581;BME280;4328;48.622;9.230;2024-03-22T04:43:36;98540.81;;;4.21;100.00
8581;BME280;4328;48.622;9.230;2024-03-22T04:46:03;98555.97;;;4.31;100.00
8581;BME280;4328;48.622;9.230;2024-03-22T04:48:29;98552.69;;;4.28;100.00
8581;BME280;4328;48.622;9.230;2024-03-22T04:50:55;98556.53;;;4.35;100.00
8581;BME280;4328;48.622;9.230;2024-03-22T04:53:21;98552.88;;;4.46;100.00
8581;BME280;4328;48.622;9.230;2024-03-22T04:55:48;98562.78;;;4.55;100.00
8581;BME280;4328;48.622;9.230;2024-03-22T04:58:17;98563.66;;;4.65;100.00
8581;BME280;4328;48.622;9.230;2024-03-22T05:00:44;98565.22;;;4.77;100.00
8581;BME280;4328;48.622;9.230;2024-03-22T05:03:10;98561.97;;;4.83;100.00
8581;BME280;4328;48.622;9.230;2024-03-22T05:05:37;98567.34;;;4.93;100.00
8581;BME280;4328;48.622;9.230;2024-03-22T05:08:04;98562.81;;;5.03;100.00
8581;BME280;4328;48.622;9.230;2024-03-22T05:10:30;98562.53;;;5.16;100.00
8581;BME280;4328;48.622;9.230;2024-03-22T05:12:56;98557.72;;;5.19;100.00
8581;BME280;4328;48.622;9.230;2024-03-22T05:15:24;98552.19;;;5.21;100.00
8581;BME280;4328;48.622;9.230;2024-03-22T05:17:50;98559.13;;;5.23;100.00
8581;BME280;4328;48.622;9.230;2024-03-22T05:20:17;98549.94;;;5.26;100.00
8581;BME280;4328;48.622;9.230;2024-03-22T05:22:43;98552.63;;;5.26;100.00
8581;BME280;4328;48.622;9.230;2024-03-22T05:25:09;98541.00;;;5.25;100.00
8581;BME280;4328;48.622;9.230;2024-03-22T05:27:35;98544.13;;;5.30;100.00
8581;BME280;4328;48.622;9.230;2024-03-22T05:30:03;98548.22;;;5.34;100.00
8581;BME280;4328;48.622;9.230;2024-03-22T05:32:30;98544.97;;;5.40;99.63
8581;BME280;4328;48.622;9.230;2024-03-22T05:34:57;98545.66;;;5.42;99.18
8581;BME280;4328;48.622;9.230;2024-03-22T05:37:22;98546.66;;;5.32;98.48
8581;BME280;4328;48.622;9.230;2024-03-22T05:39:49;98546.81;;;5.30;98.08
8581;BME280;4328;48.622;9.230;2024-03-22T05:42:15;98538.19;;;5.27;98.22
8581;BME280;4328;48.622;9.230;2024-03-22T05:44:41;98519.50;;;5.25;98.77
8581;BME280;4328;48.622;9.230;2024-03-22T05:47:07;98541.25;;;5.51;98.36
8581;BME280;4328;48.622;9.230;2024-03-22T05:49:35;98543.84;;;5.80;99.02
8581;BME280;4328;48.622;9.230;2024-03-22T05:52:00;98537.16;;;5.94;98.23
8581;BME280;4328;48.622;9.230;2024-03-22T05:54:27;98529.41;;;6.18;97.42
8581;BME280;4328;48.622;9.230;2024-03-22T05:56:52;98517.84;;;6.53;96.14
8581;BME280;4328;48.622;9.230;2024-03-22T05:59:19;98515.56;;;6.94;93.84
8581;BME280;4328;48.622;9.230;2024-03-22T06:01:45;98509.28;;;7.11;90.06
8581;BME280;4328;48.622;9.230;2024-03-22T06:04:11;98519.31;;;7.18;88.04
8581;BME280;4328;48.622;9.230;2024-03-22T06:06:38;98517.78;;;7.16;86.83
8581;BME280;4328;48.622;9.230;2024-03-22T06:09:05;98510.84;;;7.13;85.98
8581;BME280;4328;48.622;9.230;2024-03-22T06:11:34;98503.19;;;7.27;86.15
8581;BME280;4328;48.622;9.230;2024-03-22T06:14:01;98503.94;;;7.96;85.51
8581;BME280;4328;48.622;9.230;2024-03-22T06:16:26;98491.72;;;8.77;82.14
8581;BME280;4328;48.622;9.230;2024-03-22T06:18:53;98497.31;;;8.91;78.39
8581;BME280;4328;48.622;9.230;2024-03-22T06:21:18;98484.66;;;9.08;77.79
8581;BME280;4328;48.622;9.230;2024-03-22T06:23:49;98491.06;;;9.39;75.56
8581;BME280;4328;48.622;9.230;2024-03-22T06:26:14;98488.69;;;9.36;75.25
8581;BME280;4328;48.622;9.230;2024-03-22T06:28:41;98480.91;;;9.01;75.09
8581;BME280;4328;48.622;9.230;2024-03-22T06:31:07;98482.03;;;8.50;75.34
8581;BME280;4328;48.622;9.230;2024-03-22T06:33:33;98481.84;;;8.35;76.90
8581;BME280;4328;48.622;9.230;2024-03-22T06:35:59;98477.81;;;8.47;77.29
8581;BME280;4328;48.622;9.230;2024-03-22T06:38:26;98480.06;;;8.68;77.61
8581;BME280;4328;48.622;9.230;2024-03-22T06:40:53;98483.94;;;8.98;77.80
8581;BME280;4328;48.622;9.230;2024-03-22T06:43:19;98485.31;;;9.02;76.03
8581;BME280;4328;48.622;9.230;2024-03-22T06:45:45;98482.63;;;8.94;75.79
8581;BME280;4328;48.622;9.230;2024-03-22T06:48:11;98483.97;;;9.06;76.10
8581;BME280;4328;48.622;9.230;2024-03-22T06:50:37;98477.19;;;9.26;75.86
8581;BME280;4328;48.622;9.230;2024-03-22T06:53:04;98475.97;;;9.45;75.36
8581;BME280;4328;48.622;9.230;2024-03-22T06:55:29;98478.63;;;9.77;75.14
8581;BME280;4328;48.622;9.230;2024-03-22T06:57:57;98468.34;;;10.12;74.78
8581;BME280;4328;48.622;9.230;2024-03-22T07:00:23;98458.72;;;10.48;73.61
8581;BME280;4328;48.622;9.230;2024-03-22T07:02:49;98464.78;;;11.19;72.01
8581;BME280;4328;48.622;9.230;2024-03-22T07:05:15;98454.88;;;11.93;69.39
8581;BME280;4328;48.622;9.230;2024-03-22T07:07:41;98456.44;;;12.32;68.22
8581;BME280;4328;48.622;9.230;2024-03-22T07:10:08;98448.50;;;13.30;65.99
8581;BME280;4328;48.622;9.230;2024-03-22T07:12:35;98441.56;;;14.24;63.29
8581;BME280;4328;48.622;9.230;2024-03-22T07:15:02;98443.66;;;14.70;60.60
8581;BME280;4328;48.622;9.230;2024-03-22T07:17:29;98418.94;;;15.77;58.85
8581;BME280;4328;48.622;9.230;2024-03-22T07:19:55;98417.34;;;17.28;55.96
8581;BME280;4328;48.622;9.230;2024-03-22T07:22:22;98420.50;;;18.18;53.17
8581;BME280;4328;48.622;9.230;2024-03-22T07:24:48;98431.88;;;18.21;52.24
8581;BME280;4328;48.622;9.230;2024-03-22T07:27:14;98420.22;;;18.26;52.14
8581;BME280;4328;48.622;9.230;2024-03-22T07:29:40;98417.75;;;18.72;51.37
8581;BME280;4328;48.622;9.230;2024-03-22T07:32:08;98415.59;;;19.58;49.65
8581;BME280;4328;48.622;9.230;2024-03-22T07:34:34;98403.13;;;20.37;48.29
8581;BME280;4328;48.622;9.230;2024-03-22T07:37:01;98401.44;;;21.88;45.64
8581;BME280;4328;48.622;9.230;2024-03-22T07:39:26;98395.06;;;23.45;43.15
8581;BME280;4328;48.622;9.230;2024-03-22T07:41:53;98391.22;;;24.88;39.99
8581;BME280;4328;48.622;9.230;2024-03-22T07:44:18;98388.03;;;25.82;38.96
8581;BME280;4328;48.622;9.230;2024-03-22T07:46:46;98396.00;;;26.34;37.45
8581;BME280;4328;48.622;9.230;2024-03-22T07:49:13;98380.00;;;26.70;36.28
8581;BME280;4328;48.622;9.230;2024-03-22T07:51:39;98372.69;;;27.28;36.34
8581;BME280;4328;48.622;9.230;2024-03-22T07:54:05;98373.06;;;28.14;34.79
8581;BME280;4328;48.622;9.230;2024-03-22T07:56:32;98378.38;;;28.87;33.43
8581;BME280;4328;48.622;9.230;2024-03-22T07:58:58;98383.22;;;29.56;32.83
8581;BME280;4328;48.622;9.230;2024-03-22T08:01:25;98378.00;;;28.69;33.21
8581;BME280;4328;48.622;9.230;2024-03-22T08:03:51;98384.47;;;29.64;32.52
8581;BME280;4328;48.622;9.230;2024-03-22T08:06:19;98383.53;;;29.55;32.02
8581;BME280;4328;48.622;9.230;2024-03-22T08:08:44;98389.09;;;28.32;32.98
8581;BME280;4328;48.622;9.230;2024-03-22T08:11:11;98392.34;;;27.03;34.37
8581;BME280;4328;48.622;9.230;2024-03-22T08:13:36;98388.72;;;27.08;35.20
8581;BME280;4328;48.622;9.230;2024-03-22T08:16:04;98382.44;;;27.31;35.24
8581;BME280;4328;48.622;9.230;2024-03-22T08:18:31;98395.19;;;27.76;33.91
8581;BME280;4328;48.622;9.230;2024-03-22T08:20:57;98405.63;;;26.57;35.75
8581;BME280;4328;48.622;9.230;2024-03-22T08:23:25;98398.50;;;26.36;36.69
8581;BME280;4328;48.622;9.230;2024-03-22T08:25:52;98390.72;;;28.33;33.96
8581;BME280;4328;48.622;9.230;2024-03-22T08:28:17;98394.63;;;27.74;33.75
8581;BME280;4328;48.622;9.230;2024-03-22T08:30:44;98386.16;;;27.16;34.46
8581;BME280;4328;48.622;9.230;2024-03-22T08:33:10;98379.13;;;25.80;36.43
8581;BME280;4328;48.622;9.230;2024-03-22T08:35:37;98391.03;;;26.06;35.87
8581;BME280;4328;48.622;9.230;2024-03-22T08:38:03;98388.03;;;25.72;37.03
8581;BME280;4328;48.622;9.230;2024-03-22T08:40:36;98379.59;;;26.33;36.08
8581;BME280;4328;48.622;9.230;2024-03-22T08:43:02;98377.63;;;26.43;36.04
8581;BME280;4328;48.622;9.230;2024-03-22T08:45:29;98370.75;;;26.80;35.96
8581;BME280;4328;48.622;9.230;2024-03-22T08:47:55;98344.34;;;29.22;33.28
8581;BME280;4328;48.622;9.230;2024-03-22T08:50:22;98344.50;;;31.64;29.77
8581;BME280;4328;48.622;9.230;2024-03-22T08:52:47;98348.88;;;30.98;30.31
8581;BME280;4328;48.622;9.230;2024-03-22T08:55:14;98339.72;;;33.57;28.51
8581;BME280;4328;48.622;9.230;2024-03-22T08:57:41;98345.66;;;33.04;27.91
8581;BME280;4328;48.622;9.230;2024-03-22T09:00:10;98341.31;;;32.80;28.21
8581;BME280;4328;48.622;9.230;2024-03-22T09:02:36;98338.25;;;34.61;26.92
8581;BME280;4328;48.622;9.230;2024-03-22T09:05:03;98347.16;;;34.25;26.51
8581;BME280;4328;48.622;9.230;2024-03-22T09:07:29;98342.38;;;32.53;27.84
8581;BME280;4328;48.622;9.230;2024-03-22T09:09:55;98330.25;;;33.79;26.23
8581;BME280;4328;48.622;9.230;2024-03-22T09:12:21;98319.09;;;34.84;25.78
8581;BME280;4328;48.622;9.230;2024-03-22T09:14:49;98310.28;;;35.06;24.91
8581;BME280;4328;48.622;9.230;2024-03-22T09:17:14;98318.81;;;34.98;25.13
8581;BME280;4328;48.622;9.230;2024-03-22T09:19:41;98323.47;;;31.52;28.08
8581;BME280;4328;48.622;9.230;2024-03-22T09:22:06;98320.81;;;31.47;28.97
8581;BME280;4328;48.622;9.230;2024-03-22T09:24:33;98322.34;;;33.55;27.34
8581;BME280;4328;48.622;9.230;2024-03-22T09:26:59;98298.00;;;32.24;28.25
8581;BME280;4328;48.622;9.230;2024-03-22T09:29:25;98300.72;;;33.38;26.76
8581;BME280;4328;48.622;9.230;2024-03-22T09:31:52;98303.06;;;32.45;27.68
8581;BME280;4328;48.622;9.230;2024-03-22T09:34:19;98292.25;;;32.95;27.75
8581;BME280;4328;48.622;9.230;2024-03-22T09:36:45;98293.47;;;31.75;28.03
8581;BME280;4328;48.622;9.230;2024-03-22T09:39:11;98293.28;;;30.55;28.62
8581;BME280;4328;48.622;9.230;2024-03-22T09:41:42;98276.16;;;31.51;28.38
8581;BME280;4328;48.622;9.230;2024-03-22T09:44:13;98276.06;;;33.35;26.95
8581;BME280;4328;48.622;9.230;2024-03-22T09:46:39;98279.78;;;31.74;27.93
8581;BME280;4328;48.622;9.230;2024-03-22T09:49:08;98270.53;;;32.61;27.14
8581;BME280;4328;48.622;9.230;2024-03-22T09:51:36;98255.38;;;36.36;24.75
8581;BME280;4328;48.622;9.230;2024-03-22T09:54:03;98254.56;;;36.23;23.38
8581;BME280;4328;48.622;9.230;2024-03-22T09:56:30;98247.84;;;38.51;22.03
8581;BME280;4328;48.622;9.230;2024-03-22T09:58:57;98247.63;;;34.38;23.90
8581;BME280;4328;48.622;9.230;2024-03-22T10:01:23;98246.09;;;30.98;27.24
8581;BME280;4328;48.622;9.230;2024-03-22T10:03:51;98247.31;;;29.14;29.23
8581;BME280;4328;48.622;9.230;2024-03-22T10:06:18;98244.72;;;28.00;30.41
8581;BME280;4328;48.622;9.230;2024-03-22T10:08:45;98244.94;;;26.93;32.11
8581;BME280;4328;48.622;9.230;2024-03-22T10:11:10;98241.28;;;28.08;31.01
8581;BME280;4328;48.622;9.230;2024-03-22T10:13:37;98248.00;;;26.47;32.85
8581;BME280;4328;48.622;9.230;2024-03-22T10:16:03;98235.66;;;27.65;31.51
8581;BME280;4328;48.622;9.230;2024-03-22T10:18:32;98241.38;;;26.43;32.30
8581;BME280;4328;48.622;9.230;2024-03-22T10:21:01;98229.63;;;27.82;31.43
8581;BME280;4328;48.622;9.230;2024-03-22T10:23:29;98224.03;;;28.30;31.02
8581;BME280;4328;48.622;9.230;2024-03-22T10:25:56;98220.03;;;28.92;30.43
8581;BME280;4328;48.622;9.230;2024-03-22T10:28:23;98206.94;;;30.62;29.12
8581;BME280;4328;48.622;9.230;2024-03-22T10:30:50;98206.97;;;30.35;28.45
8581;BME280;4328;48.622;9.230;2024-03-22T10:33:18;98198.91;;;28.86;29.51
8581;BME280;4328;48.622;9.230;2024-03-22T10:35:46;98207.97;;;28.41;30.72
8581;BME280;4328;48.622;9.230;2024-03-22T10:38:13;98202.97;;;28.94;29.79
8581;BME280;4328;48.622;9.230;2024-03-22T10:40:44;98194.69;;;29.95;29.19
8581;BME280;4328;48.622;9.230;2024-03-22T10:43:11;98193.78;;;30.49;28.76
8581;BME280;4328;48.622;9.230;2024-03-22T10:45:38;98199.09;;;27.14;31.05
8581;BME280;4328;48.622;9.230;2024-03-22T10:48:09;98189.19;;;27.03;32.15
8581;BME280;4328;48.622;9.230;2024-03-22T10:50:39;98175.94;;;30.81;28.99
8581;BME280;4328;48.622;9.230;2024-03-22T10:53:07;98168.16;;;29.65;29.37
8581;BME280;4328;48.622;9.230;2024-03-22T10:55:36;98168.81;;;28.83;30.15
8581;BME280;4328;48.622;9.230;2024-03-22T10:58:05;98178.41;;;28.58;29.91
8581;BME280;4328;48.622;9.230;2024-03-22T11:00:32;98166.81;;;27.42;31.25
8581;BME280;4328;48.622;9.230;2024-03-22T11:02:59;98164.47;;;25.64;33.51
8581;BME280;4328;48.622;9.230;2024-03-22T11:05:27;98169.28;;;25.28;34.08
8581;BME280;4328;48.622;9.230;2024-03-22T11:08:00;98162.53;;;25.65;33.84
8581;BME280;4328;48.622;9.230;2024-03-22T11:10:28;98148.84;;;27.58;31.86
8581;BME280;4328;48.622;9.230;2024-03-22T11:13:00;98155.53;;;27.28;31.04
8581;BME280;4328;48.622;9.230;2024-03-22T11:15:28;98150.63;;;25.49;33.34
8581;BME280;4328;48.622;9.230;2024-03-22T11:17:54;98148.03;;;26.27;33.35
8581;BME280;4328;48.622;9.230;2024-03-22T11:20:20;98145.63;;;27.70;32.42
8581;BME280;4328;48.622;9.230;2024-03-22T11:22:46;98074.53;;;30.39;29.61
8581;BME280;4328;48.622;9.230;2024-03-22T11:25:12;98127.50;;;33.08;25.65
8581;BME280;4328;48.622;9.230;2024-03-22T11:27:39;98123.75;;;32.52;26.03
8581;BME280;4328;48.622;9.230;2024-03-22T11:30:05;98118.91;;;33.13;25.10
8581;BME280;4328;48.622;9.230;2024-03-22T11:32:34;98112.41;;;33.38;25.00
8581;BME280;4328;48.622;9.230;2024-03-22T11:35:07;98108.53;;;34.72;23.95
8581;BME280;4328;48.622;9.230;2024-03-22T11:37:34;98106.88;;;33.50;24.80
8581;BME280;4328;48.622;9.230;2024-03-22T11:40:00;98101.63;;;32.33;25.90
8581;BME280;4328;48.622;9.230;2024-03-22T11:42:29;98103.38;;;30.26;27.23
8581;BME280;4328;48.622;9.230;2024-03-22T11:44:55;98097.13;;;31.49;26.84
8581;BME280;4328;48.622;9.230;2024-03-22T11:47:22;98095.16;;;30.88;27.25
8581;BME280;4328;48.622;9.230;2024-03-22T11:49:49;98082.78;;;32.59;26.31
8581;BME280;4328;48.622;9.230;2024-03-22T11:52:15;98080.50;;;32.27;26.24
8581;BME280;4328;48.622;9.230;2024-03-22T11:54:41;98076.03;;;32.43;25.72
8581;BME280;4328;48.622;9.230;2024-03-22T11:57:08;98067.09;;;35.27;23.85
8581;BME280;4328;48.622;9.230;2024-03-22T11:59:34;98070.38;;;35.41;23.66
8581;BME280;4328;48.622;9.230;2024-03-22T12:02:00;98071.09;;;34.39;24.50
8581;BME280;4328;48.622;9.230;2024-03-22T12:04:26;98057.75;;;34.69;23.86
8581;BME280;4328;48.622;9.230;2024-03-22T12:06:55;98069.88;;;31.81;25.62
8581;BME280;4328;48.622;9.230;2024-03-22T12:09:22;98064.47;;;32.27;26.38
8581;BME280;4328;48.622;9.230;2024-03-22T12:11:49;98049.50;;;33.51;24.96
8581;BME280;4328;48.622;9.230;2024-03-22T12:14:15;98045.81;;;32.14;25.40
8581;BME280;4328;48.622;9.230;2024-03-22T12:16:41;98037.28;;;31.54;26.55
8581;BME280;4328;48.622;9.230;2024-03-22T12:19:07;98034.75;;;31.92;26.57
8581;BME280;4328;48.622;9.230;2024-03-22T12:21:33;98037.34;;;32.83;25.17
8581;BME280;4328;48.622;9.230;2024-03-22T12:24:01;98030.69;;;32.96;25.57
8581;BME280;4328;48.622;9.230;2024-03-22T12:26:27;98021.25;;;33.68;24.57
8581;BME280;4328;48.622;9.230;2024-03-22T12:28:53;98028.09;;;32.91;23.94
8581;BME280;4328;48.622;9.230;2024-03-22T12:31:19;98015.63;;;33.68;24.03
8581;BME280;4328;48.622;9.230;2024-03-22T12:33:45;98007.94;;;35.06;23.23
8581;BME280;4328;48.622;9.230;2024-03-22T12:36:11;98007.94;;;36.43;22.61
8581;BME280;4328;48.622;9.230;2024-03-22T12:38:37;97989.91;;;37.89;20.72
8581;BME280;4328;48.622;9.230;2024-03-22T12:41:05;97989.34;;;36.42;21.76
8581;BME280;4328;48.622;9.230;2024-03-22T12:43:31;97985.75;;;36.58;21.30
8581;BME280;4328;48.622;9.230;2024-03-22T12:45:57;97984.13;;;32.32;23.93
8581;BME280;4328;48.622;9.230;2024-03-22T12:48:23;97985.94;;;31.28;25.59
8581;BME280;4328;48.622;9.230;2024-03-22T12:50:50;97978.22;;;30.54;26.58
8581;BME280;4328;48.622;9.230;2024-03-22T12:53:15;97974.81;;;28.86;28.86
8581;BME280;4328;48.622;9.230;2024-03-22T12:55:42;97976.91;;;27.83;29.29
8581;BME280;4328;48.622;9.230;2024-03-22T12:58:09;97971.06;;;29.31;28.72
8581;BME280;4328;48.622;9.230;2024-03-22T13:00:35;97968.25;;;28.17;28.60
8581;BME280;4328;48.622;9.230;2024-03-22T13:03:01;97955.47;;;27.97;29.18
8581;BME280;4328;48.622;9.230;2024-03-22T13:05:28;97962.44;;;27.01;30.04
8581;BME280;4328;48.622;9.230;2024-03-22T13:07:53;97959.53;;;27.29;29.83
8581;BME280;4328;48.622;9.230;2024-03-22T13:10:20;97960.38;;;26.01;30.88
8581;BME280;4328;48.622;9.230;2024-03-22T13:12:46;97935.34;;;26.35;30.82
8581;BME280;4328;48.622;9.230;2024-03-22T13:15:14;97928.28;;;29.22;28.42
8581;BME280;4328;48.622;9.230;2024-03-22T13:17:40;97919.47;;;29.87;26.41
8581;BME280;4328;48.622;9.230;2024-03-22T13:20:07;97910.50;;;30.43;26.72